Aviation Digital Data Service (ADDS)

Output produced by METARs form (0124 UTC 23 July 2017)
found at http://www.aviationweather.gov/adds/metars/
 
KBID 230056Z AUTO 00000KT 8SM CLR 23/21 A2980 RMK AO2 SLP093 T02280206
KUUU 230053Z AUTO 14003KT 10SM CLR 23/19 A2979 RMK AO2 RAB29E39 SLP085 P0000 T02280194
KOQU 222050Z 19011KT 10SM FEW050 BKN180 BKN250 27/16 A2980 RMK LAST
KPVD 230051Z 16006KT 10SM BKN150 OVC300 24/19 A2979 RMK AO2 SLP087 T02390194
KPVD 222320Z 2300/2324 18006KT P6SM BKN200 
     FM230500 VRB03KT P6SM OVC150 
     FM231800 07009KT P6SM BKN200
       
KWST 230053Z AUTO 00000KT 10SM CLR 23/19 A2979 RMK AO2 SLP088 T02330189